Time;durP1;ratioP1;P1;durP2;ratioP2;P2;SDS_P1;SDS_P2;PMS_P1;PMS_P2;Temp;Humidity;BMP_temperature;BMP_pressure;BME280_temperature;BME280_humidity;BME280_pressure;Samples;Min_cycle;Max_cycle;Signal;HPM_P1;HPM_P2
2022/01/16 00:04:18;;;;;;;76.05;30.48;;;;;;;2.30;100.00;102552.41;5080739;28;20379;-85
2022/01/16 00:06:45;;;;;;;66.25;26.50;;;;;;;2.30;100.00;102548.00;5083334;28;20812;-85
2022/01/16 00:09:12;;;;;;;76.97;29.48;;;;;;;2.30;100.00;102544.50;5072808;28;20036;-85
2022/01/16 00:11:38;;;;;;;74.35;26.95;;;;;;;2.30;100.00;102552.41;5067367;28;20102;-84
2022/01/16 00:14:05;;;;;;;73.45;27.88;;;;;;;2.29;100.00;102551.53;5082511;28;20393;-84
2022/01/16 00:16:30;;;;;;;86.43;30.05;;;;;;;2.27;100.00;102549.72;5069004;28;20077;-85
2022/01/16 00:18:57;;;;;;;85.07;32.70;;;;;;;2.27;100.00;102545.34;5072178;28;20393;-84
2022/01/16 00:21:28;;;;;;;61.38;24.98;;;;;;;2.25;100.00;102536.56;5070268;28;20020;-85
2022/01/16 00:23:53;;;;;;;91.07;30.80;;;;;;;2.22;100.00;102534.78;5083916;28;20502;-84
2022/01/16 00:26:20;;;;;;;80.25;30.42;;;;;;;2.21;100.00;102530.38;5083006;28;20040;-85
2022/01/16 00:28:47;;;;;;;88.35;31.58;;;;;;;2.22;100.00;102526.00;5079767;28;20088;-85
2022/01/16 00:31:13;;;;;;;97.88;35.85;;;;;;;2.22;100.00;102532.13;5092179;28;20100;-88
2022/01/16 00:33:39;;;;;;;89.20;32.53;;;;;;;2.21;100.00;102532.13;5083884;28;20075;-88
2022/01/16 00:36:10;;;;;;;85.70;28.67;;;;;;;2.23;100.00;102543.53;5056382;28;20043;-88
2022/01/16 00:38:36;;;;;;;101.22;35.47;;;;;;;2.22;100.00;102536.53;5082807;28;20361;-88
2022/01/16 00:41:01;;;;;;;83.78;29.80;;;;;;;2.24;100.00;102540.03;5058596;28;20115;-88
2022/01/16 00:43:26;;;;;;;93.25;32.40;;;;;;;2.26;100.00;102540.09;5074875;28;20110;-88
2022/01/16 00:45:52;;;;;;;79.85;30.90;;;;;;;2.26;100.00;102543.59;5075747;28;20040;-88
2022/01/16 00:48:17;;;;;;;69.05;24.50;;;;;;;2.31;100.00;102541.88;5083930;28;20044;-88
2022/01/16 00:50:42;;;;;;;67.43;22.77;;;;;;;2.35;100.00;102545.44;5087794;28;20109;-88
2022/01/16 00:53:08;;;;;;;94.22;31.33;;;;;;;2.38;100.00;102532.31;5058324;28;20016;-89
2022/01/16 00:55:33;;;;;;;72.13;24.17;;;;;;;2.40;100.00;102519.16;5062608;28;20021;-89
2022/01/16 00:57:59;;;;;;;125.32;37.63;;;;;;;2.46;100.00;102516.56;5056575;28;20016;-88
2022/01/16 01:00:25;;;;;;;129.80;38.63;;;;;;;2.49;100.00;102504.31;5059463;28;20026;-89
2022/01/16 01:02:53;;;;;;;122.75;31.80;;;;;;;2.51;100.00;102478.00;5058644;28;20016;-89
2022/01/16 01:05:19;;;;;;;167.30;41.97;;;;;;;2.55;100.00;102486.81;5069622;28;20036;-89
2022/01/16 01:07:44;;;;;;;107.20;30.85;;;;;;;2.63;100.00;102483.38;5076464;28;20633;-89
2022/01/16 01:10:10;;;;;;;94.18;27.55;;;;;;;2.65;100.00;102500.09;5091298;28;20035;-89
2022/01/16 01:12:53;;;;;;;122.13;35.22;;;;;;;2.66;100.00;102493.97;5075314;28;20030;-90
2022/01/16 01:15:26;;;;;;;154.65;41.80;;;;;;;2.66;100.00;102520.31;5071549;28;20379;-89
2022/01/16 01:17:52;;;;;;;147.85;39.30;;;;;;;2.63;100.00;102522.91;5090217;28;20027;-89
2022/01/16 01:20:20;;;;;;;98.90;28.90;;;;;;;2.67;100.00;102524.72;5075276;28;20032;-89
2022/01/16 01:22:51;;;;;;;95.38;29.40;;;;;;;2.72;100.00;102510.69;5065586;28;20055;-90
2022/01/16 01:25:17;;;;;;;132.13;37.70;;;;;;;2.71;100.00;102506.28;5069239;28;20050;-90
2022/01/16 01:27:44;;;;;;;90.03;27.30;;;;;;;2.71;100.00;102499.28;5067335;28;20474;-89
2022/01/16 01:30:12;;;;;;;102.03;30.08;;;;;;;2.73;100.00;102502.78;5071260;28;20100;-89
2022/01/16 01:32:39;;;;;;;105.07;30.20;;;;;;;2.71;100.00;102515.09;5060776;28;20028;-89
2022/01/16 01:35:06;;;;;;;114.18;34.65;;;;;;;2.69;100.00;102517.69;5067829;28;20021;-90
2022/01/16 01:37:32;;;;;;;130.48;38.30;;;;;;;2.71;100.00;102525.63;5060776;28;20021;-89
2022/01/16 01:39:57;;;;;;;119.65;37.25;;;;;;;2.69;100.00;102495.72;5054574;28;20119;-89
2022/01/16 01:42:30;;;;;;;123.95;36.20;;;;;;;2.65;100.00;102464.94;5077140;28;20550;-89
2022/01/16 01:53:07;;;;;;;99.97;31.85;;;;;;;2.66;100.00;102448.25;5091642;28;20039;-89
2022/01/16 01:55:32;;;;;;;95.20;31.20;;;;;;;2.68;100.00;102481.66;5068044;28;20432;-86
2022/01/16 01:57:58;;;;;;;113.18;34.30;;;;;;;2.72;100.00;102486.97;5069932;28;20047;-89
2022/01/16 02:00:25;;;;;;;100.60;29.27;;;;;;;2.67;100.00;102498.38;5085158;28;20077;-88
2022/01/16 02:05:30;;;;;;;112.80;35.85;;;;;;;2.63;100.00;102512.38;5081572;28;20078;-89
2022/01/16 02:07:56;;;;;;;83.07;28.30;;;;;;;2.62;100.00;102525.53;5058138;28;20131;-90
2022/01/16 02:10:22;;;;;;;128.05;40.75;;;;;;;2.61;100.00;102532.53;5073469;28;20398;-89
2022/01/16 02:12:54;;;;;;;96.20;33.22;;;;;;;2.62;100.00;102538.72;5057654;28;20524;-89
2022/01/16 02:27:55;;;;;;;126.22;39.55;;;;;;;2.59;100.00;102522.84;5059314;28;20027;-89
2022/01/16 02:31:56;;;;;;;74.88;28.95;;;;;;;2.48;100.00;102534.19;5070053;28;20036;-86
2022/01/16 02:37:01;;;;;;;70.03;26.45;;;;;;;2.45;100.00;102528.00;5080995;28;20298;-85
2022/01/16 02:39:28;;;;;;;81.65;29.05;;;;;;;2.46;100.00;102535.00;5061599;28;20051;-87
2022/01/16 02:41:54;;;;;;;76.15;30.70;;;;;;;2.44;100.00;102534.13;5067942;28;20020;-87
2022/01/16 02:46:51;;;;;;;77.32;32.08;;;;;;;2.33;100.00;102519.09;5085363;28;20054;-86
2022/01/16 02:49:19;;;;;;;81.82;33.42;;;;;;;2.31;100.00;102518.19;5066369;28;20024;-86
2022/01/16 02:51:44;;;;;;;69.60;29.63;;;;;;;2.28;100.00;102514.63;5070153;28;20032;-86
2022/01/16 02:54:10;;;;;;;82.22;33.88;;;;;;;2.26;100.00;102501.47;5068391;28;20112;-86
2022/01/16 02:56:35;;;;;;;64.50;27.60;;;;;;;2.22;100.00;102499.66;5060312;28;20020;-86
2022/01/16 02:59:01;;;;;;;70.60;29.73;;;;;;;2.18;100.00;102508.38;5069864;28;20043;-85
2022/01/16 03:01:26;;;;;;;77.68;32.55;;;;;;;2.14;100.00;102506.59;5063249;28;20270;-85
2022/01/16 03:03:51;;;;;;;69.90;29.08;;;;;;;2.12;100.00;102497.78;5079993;28;20497;-85
2022/01/16 03:06:17;;;;;;;66.47;27.70;;;;;;;2.08;100.00;102490.69;5077583;28;20024;-86
2022/01/16 03:08:42;;;;;;;77.70;32.47;;;;;;;2.04;100.00;102482.78;5062228;28;20374;-88
2022/01/16 03:11:20;;;;;;;80.35;35.42;;;;;;;2.03;100.00;102488.91;5072831;28;20768;-90
2022/01/16 03:13:49;;;;;;;61.90;26.40;;;;;;;2.04;100.00;102480.16;5066078;28;20016;-88
2022/01/16 03:16:20;;;;;;;53.88;25.55;;;;;;;2.04;100.00;102474.91;5074922;28;20386;-89
2022/01/16 03:24:15;;;;;;;81.53;35.45;;;;;;;1.99;100.00;102465.16;5075725;28;20083;-89
2022/01/16 03:26:40;;;;;;;70.20;30.17;;;;;;;1.97;100.00;102451.09;5058138;28;20052;-87
2022/01/16 03:29:05;;;;;;;73.18;33.28;;;;;;;1.97;100.00;102466.91;5062540;28;20074;-88
2022/01/16 03:31:31;;;;;;;70.75;31.10;;;;;;;1.96;100.00;102458.13;5073586;28;20024;-88
2022/01/16 03:33:56;;;;;;;73.13;30.67;;;;;;;1.94;100.00;102459.84;5066229;28;20099;-88
2022/01/16 03:36:22;;;;;;;83.80;34.00;;;;;;;1.94;100.00;102456.34;5061129;28;20017;-88
2022/01/16 03:38:47;;;;;;;65.15;29.83;;;;;;;1.92;100.00;102461.56;5062694;28;20082;-88
2022/01/16 03:41:13;;;;;;;91.97;38.42;;;;;;;1.94;100.00;102451.94;5069090;28;20028;-88
2022/01/16 03:43:38;;;;;;;63.80;28.95;;;;;;;1.91;100.00;102457.19;5063529;28;20478;-88
2022/01/16 03:46:03;;;;;;;65.00;31.02;;;;;;;1.92;100.00;102445.78;5075543;28;20093;-88
2022/01/16 03:48:29;;;;;;;64.05;29.38;;;;;;;1.93;100.00;102444.91;5068806;28;20047;-88
2022/01/16 03:50:55;;;;;;;82.90;37.92;;;;;;;1.92;100.00;102445.78;5085116;28;20020;-88
2022/01/16 03:53:20;;;;;;;67.43;32.28;;;;;;;1.90;100.00;102445.78;5080381;28;20032;-88
2022/01/16 03:55:46;;;;;;;69.95;30.77;;;;;;;1.93;100.00;102450.19;5068988;28;20034;-89
2022/01/16 03:58:11;;;;;;;66.07;31.85;;;;;;;1.96;100.00;102444.97;5087445;28;20020;-89
2022/01/16 04:00:37;;;;;;;68.20;29.67;;;;;;;1.98;100.00;102443.25;5068685;28;20024;-89
2022/01/16 04:03:02;;;;;;;69.68;31.65;;;;;;;1.99;100.00;102450.25;5076752;28;20497;-89
2022/01/16 04:05:28;;;;;;;56.63;26.02;;;;;;;1.96;100.00;102450.22;5060537;28;20096;-89
2022/01/16 04:07:53;;;;;;;64.13;30.75;;;;;;;1.97;100.00;102451.09;5077936;28;20123;-89
2022/01/16 04:10:21;;;;;;;66.50;29.77;;;;;;;2.02;100.00;102445.03;5069082;28;20025;-89
2022/01/16 04:12:47;;;;;;;58.85;28.02;;;;;;;2.04;100.00;102443.31;5066706;28;20115;-89
2022/01/16 04:17:40;;;;;;;75.82;34.15;;;;;;;2.10;100.00;102436.34;5086112;28;20040;-89
2022/01/16 04:20:07;;;;;;;64.18;28.38;;;;;;;2.09;100.00;102437.19;5073180;28;20493;-89
2022/01/16 04:22:32;;;;;;;;;;;;;;;2.09;100.00;102440.72;5060848;28;20032;-89
2022/01/16 04:24:57;;;;;;;70.43;30.43;;;;;;;2.12;100.00;102450.41;5067782;28;20397;-88
2022/01/16 04:27:23;;;;;;;63.17;27.20;;;;;;;2.17;100.00;102441.69;5070859;28;20039;-88
2022/01/16 04:29:48;;;;;;;75.53;32.88;;;;;;;2.16;100.00;102439.03;5086647;28;20039;-88
2022/01/16 04:32:14;;;;;;;50.23;23.17;;;;;;;2.16;100.00;102442.56;5072467;28;20511;-89
2022/01/16 04:34:40;;;;;;;75.47;34.17;;;;;;;2.19;100.00;102449.59;5076746;28;20281;-89
2022/01/16 04:37:06;;;;;;;63.40;28.83;;;;;;;2.20;100.00;102439.06;5062876;28;20467;-89
2022/01/16 04:39:32;;;;;;;55.72;26.00;;;;;;;2.25;100.00;102440.88;5062629;28;20028;-89
2022/01/16 04:44:42;;;;;;;68.57;31.40;;;;;;;2.24;100.00;102433.84;5083888;28;20040;-89
2022/01/16 04:47:08;;;;;;;61.33;29.33;;;;;;;2.22;100.00;102432.06;5074891;28;20028;-89
2022/01/16 04:49:33;;;;;;;62.15;29.35;;;;;;;2.20;100.00;102427.66;5086807;28;20023;-88
2022/01/16 04:51:59;;;;;;;60.05;27.65;;;;;;;2.19;100.00;102424.13;5080022;28;20029;-89
2022/01/16 04:54:25;;;;;;;65.13;29.23;;;;;;;2.17;100.00;102427.63;5067367;28;20111;-89
2022/01/16 04:56:53;;;;;;;58.03;28.20;;;;;;;2.18;100.00;102437.28;5070651;28;20031;-89
2022/01/16 04:59:19;;;;;;;49.40;23.80;;;;;;;2.18;100.00;102434.66;5086668;28;20027;-89
2022/01/16 05:01:44;;;;;;;44.42;21.80;;;;;;;2.19;100.00;102429.41;5065134;28;20036;-89
2022/01/16 05:04:10;;;;;;;54.17;26.10;;;;;;;2.21;100.00;102429.44;5083824;28;20036;-89
2022/01/16 05:06:35;;;;;;;60.67;28.67;;;;;;;2.22;100.00;102437.34;5074184;28;20118;-89
2022/01/16 05:09:01;;;;;;;61.15;27.63;;;;;;;2.26;100.00;102421.59;5064285;28;20024;-90
2022/01/16 05:11:27;;;;;;;62.97;28.60;;;;;;;2.27;100.00;102428.59;5072787;28;20134;-89
2022/01/16 05:16:40;;;;;;;54.10;26.58;;;;;;;2.28;100.00;102428.63;5084718;28;20048;-86
2022/01/16 05:19:15;;;;;;;51.72;24.75;;;;;;;2.34;100.00;102428.69;5086223;28;20052;-86
2022/01/16 05:21:42;;;;;;;66.03;29.48;;;;;;;2.39;100.00;102434.00;5062435;28;20115;-89
2022/01/16 05:24:12;;;;;;;48.53;20.98;;;;;;;2.51;100.00;102427.97;5069073;28;20036;-87
2022/01/16 05:26:42;;;;;;;61.75;26.35;;;;;;;2.55;100.00;102419.19;5060343;28;20043;-87
2022/01/16 05:29:08;;;;;;;26.88;14.55;;;;;;;2.70;100.00;102423.72;5064587;28;20493;-88
2022/01/16 05:31:34;;;;;;;25.70;11.27;;;;;;;2.94;100.00;102428.28;5070801;28;20024;-86
2022/01/16 05:33:59;;;;;;;18.10;8.88;;;;;;;3.19;100.00;102428.44;5072280;28;20020;-87
2022/01/16 05:36:25;;;;;;;22.60;6.38;;;;;;;3.42;100.00;102428.56;5075146;28;20169;-87
2022/01/16 05:38:50;;;;;;;13.00;5.60;;;;;;;3.61;100.00;102431.28;5081920;28;20529;-88
2022/01/16 05:41:18;;;;;;;13.00;5.22;;;;;;;3.74;100.00;102426.94;5055611;28;20024;-88
2022/01/16 05:43:44;;;;;;;12.80;3.80;;;;;;;3.91;100.00;102438.41;5069017;28;20382;-87
2022/01/16 05:46:09;;;;;;;10.05;3.72;;;;;;;4.10;99.86;102425.28;5057216;28;20031;-86
2022/01/16 05:48:35;;;;;;;7.53;3.00;;;;;;;4.27;97.30;102435.88;5067384;28;20115;-87
2022/01/16 05:51:00;;;;;;;8.70;2.92;;;;;;;4.34;95.74;102434.13;5064708;28;20066;-87
2022/01/16 05:53:25;;;;;;;9.80;2.75;;;;;;;4.43;93.84;102448.22;5083614;28;20024;-87
2022/01/16 05:55:51;;;;;;;6.65;2.35;;;;;;;4.50;92.23;102443.84;5090125;28;20032;-85
2022/01/16 05:58:16;;;;;;;3.33;2.40;;;;;;;4.58;89.34;102439.44;5069173;28;20039;-86
2022/01/16 06:00:44;;;;;;;4.05;2.55;;;;;;;4.65;87.81;102437.66;5066001;28;20027;-89
2022/01/16 06:03:10;;;;;;;3.95;2.47;;;;;;;4.72;85.11;102431.47;5064592;28;20020;-86
2022/01/16 06:05:35;;;;;;;5.30;2.40;;;;;;;4.76;84.65;102437.66;5061979;28;20028;-88
2022/01/16 06:08:07;;;;;;;5.28;2.25;;;;;;;4.78;83.64;102427.97;5076334;28;20020;-91
2022/01/16 06:10:32;;;;;;;3.38;2.17;;;;;;;4.78;83.01;102427.97;5063727;28;20024;-88
2022/01/16 06:12:57;;;;;;;9.38;2.85;;;;;;;4.81;82.76;102430.63;5082266;28;20394;-89
2022/01/16 06:15:23;;;;;;;8.15;2.15;;;;;;;4.82;82.01;102432.38;5091290;28;20093;-86
2022/01/16 06:17:50;;;;;;;5.00;2.47;;;;;;;4.84;82.06;102435.88;5067300;28;20043;-89
2022/01/16 06:20:18;;;;;;;4.95;2.30;;;;;;;4.88;82.18;102434.13;5056062;28;20074;-87
2022/01/16 06:22:44;;;;;;;5.25;2.22;;;;;;;4.87;82.68;102440.28;5074349;28;20352;-87
2022/01/16 06:25:12;;;;;;;3.88;2.42;;;;;;;4.86;82.27;102442.06;5070874;28;20092;-87
2022/01/16 06:27:40;;;;;;;8.80;2.70;;;;;;;4.88;82.64;102440.31;5063069;28;20039;-89
2022/01/16 06:30:08;;;;;;;7.80;3.00;;;;;;;4.90;83.22;102443.81;5070701;28;20019;-88
2022/01/16 06:32:36;;;;;;;5.43;2.60;;;;;;;4.89;83.72;102449.09;5062345;28;20031;-86
2022/01/16 06:35:01;;;;;;;7.22;3.25;;;;;;;4.87;84.28;102445.56;5060086;28;20088;-86
2022/01/16 06:37:27;;;;;;;7.65;2.92;;;;;;;4.90;84.30;102450.88;5055038;28;20406;-87
2022/01/16 06:39:52;;;;;;;6.43;3.33;;;;;;;4.93;83.83;102455.28;5067806;28;20035;-86
2022/01/16 06:42:18;;;;;;;6.18;3.15;;;;;;;4.96;84.06;102457.94;5077237;28;20024;-87
2022/01/16 06:44:43;;;;;;;6.43;3.30;;;;;;;5.02;84.06;102463.19;5072634;28;20028;-85
2022/01/16 06:47:09;;;;;;;3.60;3.10;;;;;;;5.02;84.22;102463.19;5072286;28;20024;-85
2022/01/16 06:49:34;;;;;;;11.85;3.58;;;;;;;5.01;84.54;102464.97;5056919;28;20463;-84
2022/01/16 06:52:00;;;;;;;8.70;3.05;;;;;;;5.03;84.02;102473.78;5066790;28;20081;-86
2022/01/16 06:54:25;;;;;;;9.15;4.03;;;;;;;5.05;83.43;102481.72;5090015;28;20077;-86
2022/01/16 06:56:50;;;;;;;4.47;3.10;;;;;;;5.13;83.00;102490.53;5064836;28;20027;-85
2022/01/16 06:59:16;;;;;;;4.40;2.90;;;;;;;5.16;82.72;102489.66;5059258;28;20036;-85
2022/01/16 07:01:41;;;;;;;8.33;3.57;;;;;;;5.18;82.45;102496.69;5069720;28;20031;-85
2022/01/16 07:04:06;;;;;;;5.17;3.13;;;;;;;5.19;82.36;102494.91;5057275;28;20286;-85
2022/01/16 07:06:31;;;;;;;6.40;3.60;;;;;;;5.16;82.32;102490.50;5071942;28;20274;-86
2022/01/16 07:08:57;;;;;;;9.63;3.17;;;;;;;5.17;82.62;102494.06;5077279;28;20110;-91
2022/01/16 07:11:22;;;;;;;8.05;3.35;;;;;;;5.16;82.44;102495.81;5074259;28;20031;-90
2022/01/16 07:13:48;;;;;;;8.18;3.80;;;;;;;5.15;83.05;102498.47;5075198;28;20024;-84
2022/01/16 07:16:14;;;;;;;6.72;3.20;;;;;;;5.15;83.13;102509.91;5071628;28;20374;-86
2022/01/16 07:18:39;;;;;;;5.50;3.45;;;;;;;5.23;82.90;102517.84;5081961;28;20023;-85
2022/01/16 07:21:12;;;;;;;12.15;3.42;;;;;;;5.20;82.98;102521.41;5067886;28;20443;-85
2022/01/16 07:23:41;;;;;;;6.30;3.50;;;;;;;5.22;83.37;102532.84;5094307;28;20020;-89
2022/01/16 07:26:06;;;;;;;6.93;4.03;;;;;;;5.23;84.04;102524.03;5064626;28;20048;-86
2022/01/16 07:28:32;;;;;;;5.05;3.30;;;;;;;5.30;84.36;102534.59;5076452;28;20020;-88
2022/01/16 07:30:57;;;;;;;7.05;3.70;;;;;;;5.30;84.98;102539.88;5086176;28;20032;-89
2022/01/16 07:33:22;;;;;;;6.85;3.35;;;;;;;5.33;85.36;102534.59;5078502;28;20069;-92
2022/01/16 07:35:56;;;;;;;12.95;4.07;;;;;;;5.35;86.25;102538.13;5072450;28;20020;-89
2022/01/16 07:38:21;;;;;;;10.13;3.92;;;;;;;5.34;87.10;102552.25;5068338;28;20020;-87
2022/01/16 07:40:47;;;;;;;7.55;4.05;;;;;;;5.37;88.21;102562.81;5075118;28;20084;-89
2022/01/16 07:43:13;;;;;;;12.32;4.28;;;;;;;5.36;88.59;102558.44;5077388;28;20467;-87
2022/01/16 07:45:39;;;;;;;11.60;4.50;;;;;;;5.35;89.02;102539.00;5077745;28;20028;-87
2022/01/16 07:48:08;;;;;;;7.80;3.90;;;;;;;5.37;89.47;102542.53;5089835;28;20525;-88
2022/01/16 07:50:34;;;;;;;11.80;4.40;;;;;;;5.36;90.08;102551.34;5072468;28;20431;-90
2022/01/16 07:53:00;;;;;;;15.95;4.85;;;;;;;5.36;90.44;102550.50;5076474;28;20026;-90
2022/01/16 07:55:26;;;;;;;10.75;5.10;;;;;;;5.33;91.12;102553.13;5068867;28;20412;-87
2022/01/16 07:57:55;;;;;;;12.50;4.40;;;;;;;5.36;91.35;102569.88;5097398;28;20031;-90
2022/01/16 08:00:22;;;;;;;11.95;4.93;;;;;;;5.34;91.85;102578.72;5096183;28;20032;-91
2022/01/16 08:02:50;;;;;;;15.50;5.60;;;;;;;5.32;92.17;102568.13;5067314;28;20399;-91
2022/01/16 08:05:17;;;;;;;14.82;5.80;;;;;;;5.30;92.75;102566.34;5074091;28;20170;-90
2022/01/16 08:07:43;;;;;;;15.95;5.47;;;;;;;5.36;93.02;102575.19;5076430;28;20122;-86
2022/01/16 08:10:09;;;;;;;11.55;5.43;;;;;;;5.45;93.18;102568.13;5072727;28;20490;-90
2022/01/16 08:12:34;;;;;;;10.15;5.40;;;;;;;5.44;93.38;102575.16;5068625;28;20081;-88
2022/01/16 08:15:00;;;;;;;15.60;5.68;;;;;;;5.43;93.44;102570.78;5071749;28;20023;-87
2022/01/16 08:17:25;;;;;;;9.43;5.05;;;;;;;5.47;93.84;102563.72;5075772;28;20036;-88
2022/01/16 08:19:51;;;;;;;12.07;5.75;;;;;;;5.47;93.83;102559.28;5089999;28;20028;-88
2022/01/16 08:22:16;;;;;;;14.85;5.70;;;;;;;5.50;93.70;102559.28;5067960;28;20425;-86
2022/01/16 08:24:41;;;;;;;13.75;6.53;;;;;;;5.48;93.69;102557.53;5083576;28;20532;-86
2022/01/16 08:27:07;;;;;;;12.90;5.32;;;;;;;5.49;93.84;102549.59;5064047;28;20494;-86
2022/01/16 08:32:24;;;;;;;11.30;5.70;;;;;;;5.51;94.03;102557.50;5051079;28;20068;-82
2022/01/16 08:34:49;;;;;;;21.05;5.47;;;;;;;5.48;94.25;102549.59;5051715;28;20067;-82
2022/01/16 08:37:15;;;;;;;12.93;4.63;;;;;;;5.48;94.56;102550.47;5046877;28;20052;-80
2022/01/16 08:39:40;;;;;;;13.85;5.03;;;;;;;5.46;94.41;102544.28;5046388;28;20024;-80
2022/01/16 08:42:06;;;;;;;17.73;6.43;;;;;;;5.40;94.82;102546.94;5053902;28;20031;-81
2022/01/16 08:44:32;;;;;;;13.15;5.95;;;;;;;5.47;94.90;102556.63;5057469;28;20111;-77
2022/01/16 08:46:57;;;;;;;22.48;10.45;;;;;;;5.45;94.65;102566.34;5051673;28;20037;-77
2022/01/16 08:49:23;;;;;;;33.38;14.43;;;;;;;5.41;94.67;102568.97;5052026;28;20078;-76
2022/01/16 08:51:48;;;;;;;34.38;14.43;;;;;;;5.31;95.15;102566.38;5037029;28;20083;-81
2022/01/16 08:54:13;;;;;;;26.95;12.52;;;;;;;5.28;95.46;102578.72;5053248;28;20462;-80
2022/01/16 08:56:39;;;;;;;45.10;17.85;;;;;;;5.17;95.75;102584.88;5035687;28;20031;-82
2022/01/16 08:59:04;;;;;;;34.78;16.02;;;;;;;5.12;96.11;102589.31;5050684;28;20107;-81
2022/01/16 09:01:30;;;;;;;47.70;17.58;;;;;;;5.04;96.81;102591.06;5050535;28;20108;-81
2022/01/16 09:03:56;;;;;;;33.78;16.13;;;;;;;4.98;97.10;102601.63;5050154;28;20070;-76
2022/01/16 09:06:21;;;;;;;40.53;18.38;;;;;;;4.95;97.50;102606.91;5050896;28;20483;-76
2022/01/16 09:08:47;;;;;;;42.13;18.38;;;;;;;4.94;97.64;102605.13;5051681;28;20028;-77
2022/01/16 09:11:12;;;;;;;42.33;19.60;;;;;;;4.93;97.80;102609.56;5049283;28;20025;-76
2022/01/16 09:13:40;;;;;;;41.42;16.75;;;;;;;4.89;97.98;102611.31;5049026;28;20027;-82
2022/01/16 09:16:07;;;;;;;43.50;19.52;;;;;;;4.89;98.36;102610.41;5016153;28;20075;-76
2022/01/16 09:18:33;;;;;;;29.53;14.47;;;;;;;4.88;98.39;102611.28;5049154;28;20105;-82
2022/01/16 09:21:00;;;;;;;41.58;19.30;;;;;;;4.86;98.58;102619.22;5049974;28;20024;-83
2022/01/16 09:23:25;;;;;;;45.38;21.88;;;;;;;4.85;98.86;102614.81;5034818;28;20116;-80
2022/01/16 09:25:51;;;;;;;46.15;21.95;;;;;;;4.84;98.90;102620.97;5032021;28;20036;-75
2022/01/16 09:28:16;;;;;;;49.40;20.80;;;;;;;4.83;99.08;102627.16;5048974;28;20036;-83
2022/01/16 09:30:42;;;;;;;52.42;23.15;;;;;;;4.81;99.24;102631.56;5030947;28;20049;-75
2022/01/16 09:33:07;;;;;;;37.85;16.77;;;;;;;4.82;99.10;102633.34;5031528;28;20033;-81
2022/01/16 09:35:33;;;;;;;45.67;19.75;;;;;;;4.87;99.01;102636.88;5049937;28;20033;-81
2022/01/16 09:38:00;;;;;;;36.05;17.05;;;;;;;4.85;99.22;102638.63;5051603;28;20100;-76
2022/01/16 09:40:25;;;;;;;41.50;19.77;;;;;;;4.86;98.91;102628.94;5034094;28;20075;-76
2022/01/16 09:42:52;;;;;;;42.92;19.90;;;;;;;4.82;99.19;102643.91;5050888;28;20025;-76
2022/01/16 09:45:17;;;;;;;;;;;;;;;4.81;99.14;102641.25;5015891;28;20025;-82
2022/01/16 09:47:44;;;;;;;40.10;16.47;;;;;;;4.76;99.28;102649.16;5032293;28;19939;-82
2022/01/16 09:50:09;;;;;;;;;;;;;;;4.72;99.34;102640.34;5049580;28;20025;-76
2022/01/16 09:52:39;;;;;;;41.67;16.63;;;;;;;4.71;99.59;102646.50;5049680;28;19959;-75
2022/01/16 09:55:05;;;;;;;45.90;20.63;;;;;;;4.74;99.39;102650.94;5048989;28;20020;-76
2022/01/16 09:57:31;;;;;;;51.15;23.38;;;;;;;4.72;99.52;102658.84;5031864;28;20033;-76
2022/01/16 09:59:58;;;;;;;50.00;22.08;;;;;;;4.71;99.95;102659.72;5049416;28;20017;-76
2022/01/16 10:02:23;;;;;;;47.35;20.10;;;;;;;4.71;99.63;102661.50;5018096;28;20463;-77
2022/01/16 10:04:48;;;;;;;49.55;20.02;;;;;;;4.71;99.88;102666.78;5034381;28;20032;-78
2022/01/16 10:07:17;;;;;;;52.15;22.75;;;;;;;4.70;99.78;102670.31;5036392;28;20421;-78
2022/01/16 10:09:46;;;;;;;55.70;24.05;;;;;;;4.65;99.79;102672.91;5044515;28;20027;-78
2022/01/16 10:12:19;;;;;;;53.92;22.25;;;;;;;4.67;99.93;102675.59;5060215;28;20112;-77
2022/01/16 10:14:49;;;;;;;58.45;26.38;;;;;;;4.66;99.83;102669.41;5046823;28;20047;-77
2022/01/16 10:17:17;;;;;;;68.47;27.98;;;;;;;4.64;100.00;102672.94;5048690;28;20028;-83
2022/01/16 10:19:43;;;;;;;63.97;25.50;;;;;;;4.63;99.99;102681.72;5049807;28;20149;-83
2022/01/16 10:22:10;;;;;;;;;;;;;;;4.60;100.00;102678.19;5049921;28;20021;-77
2022/01/16 10:24:39;;;;;;;65.45;26.52;;;;;;;4.59;100.00;102673.81;5046835;28;20050;-83
2022/01/16 10:27:07;;;;;;;57.65;21.73;;;;;;;4.58;100.00;102679.97;5031020;28;20033;-77
2022/01/16 10:29:35;;;;;;;66.60;25.70;;;;;;;4.61;100.00;102684.38;5030838;28;20040;-78
2022/01/16 10:32:14;;;;;;;62.40;24.52;;;;;;;4.60;100.00;102691.41;5046690;28;20040;-78
2022/01/16 10:34:40;;;;;;;54.55;23.05;;;;;;;4.66;100.00;102684.41;5047071;28;20021;-78
2022/01/16 10:37:19;;;;;;;;;;;;;;;4.68;100.00;102679.97;5032838;28;20072;-78
2022/01/16 10:39:55;;;;;;;56.90;22.00;;;;;;;4.73;100.00;102683.53;5032667;28;19999;-78
2022/01/16 10:42:21;;;;;;;47.65;18.38;;;;;;;4.78;100.00;102679.16;5050231;28;20005;-78
2022/01/16 10:44:54;;;;;;;64.00;25.45;;;;;;;4.85;100.00;102680.94;5033301;28;20036;-82
2022/01/16 10:47:30;;;;;;;68.05;24.92;;;;;;;4.88;100.00;102682.69;5049551;28;20060;-77
2022/01/16 10:50:09;;;;;;;65.80;26.85;;;;;;;4.91;100.00;102672.13;5031812;28;20435;-82
2022/01/16 10:52:49;;;;;;;63.92;26.00;;;;;;;4.95;100.00;102671.25;5049203;28;20024;-78
2022/01/16 10:55:16;;;;;;;55.95;23.23;;;;;;;4.99;100.00;102674.78;5050696;28;20515;-82
2022/01/16 10:57:41;;;;;;;51.97;21.95;;;;;;;5.03;100.00;102668.63;5016604;28;20029;-82
2022/01/16 11:00:09;;;;;;;60.25;23.48;;;;;;;5.13;100.00;102669.53;5049326;28;20091;-78
2022/01/16 11:02:34;;;;;;;62.35;25.15;;;;;;;5.22;100.00;102670.41;5033245;28;20021;-82
2022/01/16 11:05:20;;;;;;;54.85;21.88;;;;;;;5.22;100.00;102673.06;5050396;28;20017;-83
2022/01/16 11:07:46;;;;;;;49.58;21.60;;;;;;;5.25;100.00;102674.84;5032595;28;20032;-78
2022/01/16 11:10:21;;;;;;;56.95;22.40;;;;;;;5.33;100.00;102672.22;5052080;28;20100;-78
2022/01/16 11:12:48;;;;;;;59.10;24.95;;;;;;;5.51;100.00;102673.97;5044642;28;20028;-78
2022/01/16 11:15:13;;;;;;;61.15;25.98;;;;;;;5.61;100.00;102666.91;5062630;28;20112;-78
2022/01/16 11:17:39;;;;;;;62.05;24.92;;;;;;;5.68;100.00;102672.22;5032526;28;20112;-78
2022/01/16 11:20:07;;;;;;;57.17;22.38;;;;;;;5.82;99.75;102674.84;5049459;28;20025;-78
2022/01/16 11:22:45;;;;;;;54.13;23.48;;;;;;;5.93;99.60;102666.91;5049150;28;20111;-78
2022/01/16 11:25:23;;;;;;;62.38;24.70;;;;;;;6.13;98.94;102688.06;5049930;28;20028;-78
2022/01/16 11:27:49;;;;;;;50.53;20.13;;;;;;;6.29;98.02;102683.63;5050511;28;20467;-78
2022/01/16 11:30:14;;;;;;;;;;;;;;;6.48;96.95;102688.84;5049587;28;20029;-78
2022/01/16 11:32:40;;;;;;;48.47;22.17;;;;;;;6.72;96.12;102676.38;5049105;28;20026;-78
2022/01/16 11:35:05;;;;;;;44.33;20.33;;;;;;;6.88;93.28;102677.22;5050526;28;20024;-77
2022/01/16 11:37:31;;;;;;;41.10;19.17;;;;;;;6.79;92.66;102668.41;5048998;28;20037;-78
2022/01/16 11:40:19;;;;;;;42.85;19.65;;;;;;;6.71;93.52;102664.91;5046148;28;20116;-77
2022/01/16 11:42:45;;;;;;;34.22;14.88;;;;;;;6.68;93.86;102659.59;5050959;28;20076;-78
2022/01/16 11:45:10;;;;;;;41.22;17.98;;;;;;;6.67;93.90;102660.50;5049827;28;20518;-78
2022/01/16 11:47:35;;;;;;;30.77;13.82;;;;;;;6.67;94.29;102663.16;5048669;28;20052;-77
2022/01/16 11:50:08;;;;;;;33.38;14.45;;;;;;;6.66;94.27;102658.75;5033946;28;20056;-77
2022/01/16 11:52:38;;;;;;;38.45;15.40;;;;;;;6.63;94.06;102650.81;5053394;28;20425;-78
2022/01/16 11:55:08;;;;;;;36.80;15.48;;;;;;;6.61;94.02;102663.19;5064955;28;20035;-83
2022/01/16 11:57:35;;;;;;;29.85;12.85;;;;;;;6.61;93.81;102671.13;5037035;28;20039;-82
2022/01/16 12:00:09;;;;;;;35.75;15.55;;;;;;;6.56;93.43;102667.63;5054316;28;20439;-78
2022/01/16 12:02:40;;;;;;;25.38;11.27;;;;;;;6.59;93.36;102663.19;5053385;28;20438;-77
2022/01/16 12:05:06;;;;;;;29.92;12.65;;;;;;;6.62;93.82;102670.25;5036370;28;20107;-76